sensor_id;sensor_type;location;lat;lon;timestamp;pressure;altitude;pressure_sealevel;temperature;humidity
21545;BME280;10933;50.754;11.508;2023-12-29T00:02:07;99453.59;;;9.82;100.00
21545;BME280;10933;50.754;11.508;2023-12-29T00:04:33;99451.06;;;9.76;100.00
21545;BME280;10933;50.754;11.508;2023-12-29T00:06:59;99438.25;;;9.44;100.00
21545;BME280;10933;50.754;11.508;2023-12-29T00:09:25;99449.97;;;9.55;100.00
21545;BME280;10933;50.754;11.508;2023-12-29T00:11:51;99451.44;;;9.46;100.00
21545;BME280;10933;50.754;11.508;2023-12-29T00:14:18;99440.34;;;9.59;100.00
21545;BME280;10933;50.754;11.508;2023-12-29T00:16:44;99430.34;;;9.76;100.00
21545;BME280;10933;50.754;11.508;2023-12-29T00:19:11;99445.06;;;9.90;100.00
21545;BME280;10933;50.754;11.508;2023-12-29T00:21:37;99435.72;;;9.93;100.00
21545;BME280;10933;50.754;11.508;2023-12-29T00:24:05;99441.97;;;9.98;100.00
21545;BME280;10933;50.754;11.508;2023-12-29T00:26:31;99439.31;;;10.03;100.00
21545;BME280;10933;50.754;11.508;2023-12-29T00:28:57;99429.34;;;9.82;100.00
21545;BME280;10933;50.754;11.508;2023-12-29T00:31:23;99436.38;;;9.83;100.00
21545;BME280;10933;50.754;11.508;2023-12-29T00:33:50;99430.69;;;9.80;100.00
21545;BME280;10933;50.754;11.508;2023-12-29T00:36:19;99433.13;;;9.64;100.00
21545;BME280;10933;50.754;11.508;2023-12-29T00:38:46;99430.34;;;9.76;100.00
21545;BME280;10933;50.754;11.508;2023-12-29T00:41:12;99408.69;;;9.66;100.00
21545;BME280;10933;50.754;11.508;2023-12-29T00:43:38;99425.88;;;9.65;100.00
21545;BME280;10933;50.754;11.508;2023-12-29T00:46:08;99416.66;;;9.61;100.00
21545;BME280;10933;50.754;11.508;2023-12-29T00:48:34;99424.84;;;9.88;100.00
21545;BME280;10933;50.754;11.508;2023-12-29T00:51:04;99417.16;;;9.58;100.00
21545;BME280;10933;50.754;11.508;2023-12-29T00:53:30;99410.78;;;9.64;100.00
21545;BME280;10933;50.754;11.508;2023-12-29T00:55:59;99417.00;;;9.86;100.00
21545;BME280;10933;50.754;11.508;2023-12-29T00:58:25;99403.28;;;9.66;100.00
21545;BME280;10933;50.754;11.508;2023-12-29T01:00:51;99405.13;;;9.65;100.00
21545;BME280;10933;50.754;11.508;2023-12-29T01:03:17;99408.03;;;9.59;100.00
21545;BME280;10933;50.754;11.508;2023-12-29T01:05:43;99402.56;;;9.54;100.00
21545;BME280;10933;50.754;11.508;2023-12-29T01:08:10;99400.44;;;9.39;100.00
21545;BME280;10933;50.754;11.508;2023-12-29T01:10:36;99401.03;;;9.41;100.00
21545;BME280;10933;50.754;11.508;2023-12-29T01:13:02;99396.22;;;9.43;100.00
21545;BME280;10933;50.754;11.508;2023-12-29T01:15:28;99393.69;;;9.36;100.00
21545;BME280;10933;50.754;11.508;2023-12-29T01:17:54;99393.53;;;9.26;100.00
21545;BME280;10933;50.754;11.508;2023-12-29T01:20:20;99403.50;;;9.42;100.00
21545;BME280;10933;50.754;11.508;2023-12-29T01:22:46;99420.72;;;9.63;100.00
21545;BME280;10933;50.754;11.508;2023-12-29T01:25:12;99399.94;;;9.59;100.00
21545;BME280;10933;50.754;11.508;2023-12-29T01:27:38;99388.75;;;9.67;100.00
21545;BME280;10933;50.754;11.508;2023-12-29T01:30:05;99391.34;;;9.79;100.00
21545;BME280;10933;50.754;11.508;2023-12-29T01:32:31;99384.50;;;9.71;100.00
21545;BME280;10933;50.754;11.508;2023-12-29T01:34:57;99374.38;;;9.61;100.00
21545;BME280;10933;50.754;11.508;2023-12-29T01:37:23;99376.47;;;9.76;100.00
21545;BME280;10933;50.754;11.508;2023-12-29T01:39:50;99363.00;;;9.98;100.00
21545;BME280;10933;50.754;11.508;2023-12-29T01:42:16;99370.41;;;10.08;100.00
21545;BME280;10933;50.754;11.508;2023-12-29T01:44:42;99370.19;;;10.14;100.00
21545;BME280;10933;50.754;11.508;2023-12-29T01:47:15;99346.41;;;10.06;100.00
21545;BME280;10933;50.754;11.508;2023-12-29T01:49:44;99344.63;;;10.17;100.00
21545;BME280;10933;50.754;11.508;2023-12-29T01:52:11;99344.06;;;10.15;100.00
21545;BME280;10933;50.754;11.508;2023-12-29T01:54:37;99346.75;;;10.15;100.00
21545;BME280;10933;50.754;11.508;2023-12-29T01:57:07;99323.81;;;10.12;100.00
21545;BME280;10933;50.754;11.508;2023-12-29T01:59:35;99353.66;;;10.27;100.00
21545;BME280;10933;50.754;11.508;2023-12-29T02:02:02;99348.75;;;10.02;100.00
21545;BME280;10933;50.754;11.508;2023-12-29T02:04:29;99356.84;;;10.02;100.00
21545;BME280;10933;50.754;11.508;2023-12-29T02:06:56;99371.38;;;10.01;100.00
21545;BME280;10933;50.754;11.508;2023-12-29T02:09:22;99358.44;;;9.98;100.00
21545;BME280;10933;50.754;11.508;2023-12-29T02:11:49;99367.88;;;10.01;100.00
21545;BME280;10933;50.754;11.508;2023-12-29T02:14:16;99384.88;;;10.23;100.00
21545;BME280;10933;50.754;11.508;2023-12-29T02:19:40;99366.31;;;10.27;100.00
21545;BME280;10933;50.754;11.508;2023-12-29T02:22:07;99356.59;;;10.26;100.00
21545;BME280;10933;50.754;11.508;2023-12-29T02:24:34;99374.66;;;10.25;100.00
21545;BME280;10933;50.754;11.508;2023-12-29T02:29:42;99378.97;;;10.26;100.00
21545;BME280;10933;50.754;11.508;2023-12-29T02:32:13;99387.50;;;10.40;100.00
21545;BME280;10933;50.754;11.508;2023-12-29T02:34:44;99386.00;;;10.27;100.00
21545;BME280;10933;50.754;11.508;2023-12-29T02:37:12;99376.09;;;10.33;100.00
21545;BME280;10933;50.754;11.508;2023-12-29T02:39:39;99401.66;;;10.52;100.00
21545;BME280;10933;50.754;11.508;2023-12-29T02:42:06;99386.13;;;10.38;100.00
21545;BME280;10933;50.754;11.508;2023-12-29T02:44:32;99380.72;;;10.16;100.00
21545;BME280;10933;50.754;11.508;2023-12-29T02:46:58;99373.09;;;10.08;100.00
21545;BME280;10933;50.754;11.508;2023-12-29T02:49:26;99365.22;;;10.23;100.00
21545;BME280;10933;50.754;11.508;2023-12-29T02:51:52;99357.22;;;10.33;100.00
21545;BME280;10933;50.754;11.508;2023-12-29T02:54:18;99368.16;;;10.21;100.00
21545;BME280;10933;50.754;11.508;2023-12-29T02:56:44;99346.25;;;10.18;100.00
21545;BME280;10933;50.754;11.508;2023-12-29T02:59:10;99348.00;;;10.29;100.00
21545;BME280;10933;50.754;11.508;2023-12-29T03:01:36;99346.75;;;10.15;100.00
21545;BME280;10933;50.754;11.508;2023-12-29T03:04:02;99347.00;;;10.35;100.00
21545;BME280;10933;50.754;11.508;2023-12-29T03:06:28;99347.19;;;10.28;100.00
21545;BME280;10933;50.754;11.508;2023-12-29T03:08:54;99333.34;;;10.20;100.00
21545;BME280;10933;50.754;11.508;2023-12-29T03:11:20;99337.22;;;10.29;100.00
21545;BME280;10933;50.754;11.508;2023-12-29T03:13:47;99314.47;;;10.20;100.00
21545;BME280;10933;50.754;11.508;2023-12-29T03:16:13;99335.28;;;10.24;100.00
21545;BME280;10933;50.754;11.508;2023-12-29T03:18:39;99341.63;;;10.35;100.00
21545;BME280;10933;50.754;11.508;2023-12-29T03:21:07;99342.69;;;10.34;100.00
21545;BME280;10933;50.754;11.508;2023-12-29T03:23:33;99342.53;;;10.46;100.00
21545;BME280;10933;50.754;11.508;2023-12-29T03:26:00;99330.28;;;10.11;100.00
21545;BME280;10933;50.754;11.508;2023-12-29T03:28:26;99326.66;;;10.00;100.00
21545;BME280;10933;50.754;11.508;2023-12-29T03:30:52;99322.31;;;9.99;100.00
21545;BME280;10933;50.754;11.508;2023-12-29T03:33:18;99334.59;;;10.12;100.00
21545;BME280;10933;50.754;11.508;2023-12-29T03:35:44;99336.03;;;10.20;100.00
21545;BME280;10933;50.754;11.508;2023-12-29T03:38:10;99327.94;;;10.20;100.00
21545;BME280;10933;50.754;11.508;2023-12-29T03:40:36;99325.69;;;10.12;100.00
21545;BME280;10933;50.754;11.508;2023-12-29T03:43:02;99314.31;;;10.05;100.00
21545;BME280;10933;50.754;11.508;2023-12-29T03:45:28;99309.94;;;9.98;100.00
21545;BME280;10933;50.754;11.508;2023-12-29T03:47:54;99343.16;;;10.04;100.00
21545;BME280;10933;50.754;11.508;2023-12-29T03:50:21;99339.72;;;10.36;100.00
21545;BME280;10933;50.754;11.508;2023-12-29T03:52:47;99333.00;;;10.38;100.00
21545;BME280;10933;50.754;11.508;2023-12-29T03:55:13;99308.00;;;10.21;100.00
21545;BME280;10933;50.754;11.508;2023-12-29T03:57:41;99330.00;;;10.35;100.00
21545;BME280;10933;50.754;11.508;2023-12-29T04:00:11;99331.00;;;10.28;100.00
21545;BME280;10933;50.754;11.508;2023-12-29T04:02:37;99334.72;;;10.49;100.00
21545;BME280;10933;50.754;11.508;2023-12-29T04:05:03;99331.94;;;10.39;100.00
21545;BME280;10933;50.754;11.508;2023-12-29T04:07:31;99305.75;;;10.13;100.00
21545;BME280;10933;50.754;11.508;2023-12-29T04:09:57;99333.25;;;10.37;100.00
21545;BME280;10933;50.754;11.508;2023-12-29T04:12:23;99341.63;;;10.35;100.00
21545;BME280;10933;50.754;11.508;2023-12-29T04:14:49;99328.03;;;10.25;100.00
21545;BME280;10933;50.754;11.508;2023-12-29T04:17:15;99332.72;;;10.13;100.00
21545;BME280;10933;50.754;11.508;2023-12-29T04:19:41;99303.63;;;10.15;100.00
21545;BME280;10933;50.754;11.508;2023-12-29T04:22:08;99316.91;;;10.43;100.00
21545;BME280;10933;50.754;11.508;2023-12-29T04:24:34;99307.53;;;10.24;100.00
21545;BME280;10933;50.754;11.508;2023-12-29T04:27:03;99296.75;;;10.24;100.00
21545;BME280;10933;50.754;11.508;2023-12-29T04:29:29;99308.22;;;10.41;100.00
21545;BME280;10933;50.754;11.508;2023-12-29T04:31:55;99289.28;;;10.31;100.00
21545;BME280;10933;50.754;11.508;2023-12-29T04:34:21;99296.56;;;10.30;100.00
21545;BME280;10933;50.754;11.508;2023-12-29T04:36:47;99303.59;;;10.37;100.00
21545;BME280;10933;50.754;11.508;2023-12-29T04:39:13;99306.00;;;10.33;100.00
21545;BME280;10933;50.754;11.508;2023-12-29T04:41:39;99306.84;;;10.39;100.00
21545;BME280;10933;50.754;11.508;2023-12-29T04:44:05;99311.69;;;10.37;100.00
21545;BME280;10933;50.754;11.508;2023-12-29T04:46:31;99305.09;;;10.22;100.00
21545;BME280;10933;50.754;11.508;2023-12-29T04:48:57;99302.63;;;10.21;100.00
21545;BME280;10933;50.754;11.508;2023-12-29T04:51:23;99309.34;;;10.45;100.00
21545;BME280;10933;50.754;11.508;2023-12-29T04:53:50;99304.28;;;10.22;100.00
21545;BME280;10933;50.754;11.508;2023-12-29T04:56:16;99280.50;;;10.19;100.00
21545;BME280;10933;50.754;11.508;2023-12-29T04:58:42;99278.63;;;10.19;100.00
21545;BME280;10933;50.754;11.508;2023-12-29T05:01:08;99289.22;;;10.26;100.00
21545;BME280;10933;50.754;11.508;2023-12-29T05:03:34;99287.41;;;10.31;100.00
21545;BME280;10933;50.754;11.508;2023-12-29T05:06:01;99303.97;;;10.45;100.00
21545;BME280;10933;50.754;11.508;2023-12-29T05:08:27;99298.88;;;10.49;100.00
21545;BME280;10933;50.754;11.508;2023-12-29T05:10:53;99241.50;;;10.26;100.00
21545;BME280;10933;50.754;11.508;2023-12-29T05:13:21;99275.81;;;10.36;100.00
21545;BME280;10933;50.754;11.508;2023-12-29T05:15:47;99281.13;;;10.26;100.00
21545;BME280;10933;50.754;11.508;2023-12-29T05:18:13;99264.19;;;10.30;100.00
21545;BME280;10933;50.754;11.508;2023-12-29T05:20:39;99265.56;;;10.33;100.00
21545;BME280;10933;50.754;11.508;2023-12-29T05:23:05;99287.28;;;10.53;100.00
21545;BME280;10933;50.754;11.508;2023-12-29T05:25:31;99299.03;;;10.37;100.00
21545;BME280;10933;50.754;11.508;2023-12-29T05:27:57;99307.41;;;10.41;100.00
21545;BME280;10933;50.754;11.508;2023-12-29T05:30:23;99301.03;;;10.52;100.00
21545;BME280;10933;50.754;11.508;2023-12-29T05:32:49;99308.84;;;10.48;100.00
21545;BME280;10933;50.754;11.508;2023-12-29T05:35:16;99311.50;;;10.43;100.00
21545;BME280;10933;50.754;11.508;2023-12-29T05:37:43;99309.78;;;10.64;100.00
21545;BME280;10933;50.754;11.508;2023-12-29T05:40:09;99304.63;;;10.30;100.00
21545;BME280;10933;50.754;11.508;2023-12-29T05:42:35;99303.03;;;10.61;100.00
21545;BME280;10933;50.754;11.508;2023-12-29T05:45:01;99293.34;;;10.66;100.00
21545;BME280;10933;50.754;11.508;2023-12-29T05:47:28;99268.00;;;10.35;100.00
21545;BME280;10933;50.754;11.508;2023-12-29T05:49:54;99275.38;;;10.44;100.00
21545;BME280;10933;50.754;11.508;2023-12-29T05:52:21;99260.09;;;10.28;100.00
21545;BME280;10933;50.754;11.508;2023-12-29T05:54:47;99238.06;;;10.31;100.00
21545;BME280;10933;50.754;11.508;2023-12-29T05:57:13;99245.72;;;10.17;100.00
21545;BME280;10933;50.754;11.508;2023-12-29T05:59:40;99246.13;;;10.31;100.00
21545;BME280;10933;50.754;11.508;2023-12-29T06:02:06;99242.84;;;10.24;100.00
21545;BME280;10933;50.754;11.508;2023-12-29T06:04:32;99241.75;;;10.57;100.00
21545;BME280;10933;50.754;11.508;2023-12-29T06:06:58;99232.13;;;10.34;100.00
21545;BME280;10933;50.754;11.508;2023-12-29T06:09:25;99224.88;;;10.35;100.00
21545;BME280;10933;50.754;11.508;2023-12-29T06:11:51;99207.31;;;10.32;100.00
21545;BME280;10933;50.754;11.508;2023-12-29T06:14:17;99221.53;;;10.54;100.00
21545;BME280;10933;50.754;11.508;2023-12-29T06:16:44;99209.94;;;10.59;100.00
21545;BME280;10933;50.754;11.508;2023-12-29T06:19:10;99246.94;;;10.64;100.00
21545;BME280;10933;50.754;11.508;2023-12-29T06:21:45;99248.50;;;10.54;100.00
21545;BME280;10933;50.754;11.508;2023-12-29T06:24:11;99265.88;;;10.69;100.00
21545;BME280;10933;50.754;11.508;2023-12-29T06:26:37;99261.59;;;10.78;100.00
21545;BME280;10933;50.754;11.508;2023-12-29T06:29:09;99253.38;;;10.57;100.00
21545;BME280;10933;50.754;11.508;2023-12-29T06:31:35;99242.50;;;10.47;100.00
21545;BME280;10933;50.754;11.508;2023-12-29T06:34:01;99220.41;;;10.50;100.00
21545;BME280;10933;50.754;11.508;2023-12-29T06:36:27;99215.53;;;10.47;100.00
21545;BME280;10933;50.754;11.508;2023-12-29T06:38:54;99192.69;;;10.60;100.00
21545;BME280;10933;50.754;11.508;2023-12-29T06:41:20;99212.34;;;10.55;100.00
21545;BME280;10933;50.754;11.508;2023-12-29T06:43:46;99232.97;;;10.72;100.00
21545;BME280;10933;50.754;11.508;2023-12-29T06:46:12;99245.22;;;10.89;100.00
21545;BME280;10933;50.754;11.508;2023-12-29T06:48:39;99225.59;;;10.57;100.00
21545;BME280;10933;50.754;11.508;2023-12-29T06:51:06;99257.53;;;10.75;100.00
21545;BME280;10933;50.754;11.508;2023-12-29T06:53:32;99266.81;;;10.89;100.00
21545;BME280;10933;50.754;11.508;2023-12-29T06:55:59;99275.59;;;10.75;100.00
21545;BME280;10933;50.754;11.508;2023-12-29T06:58:25;99284.84;;;10.84;100.00
21545;BME280;10933;50.754;11.508;2023-12-29T07:00:51;99288.38;;;10.89;100.00
21545;BME280;10933;50.754;11.508;2023-12-29T07:03:17;99292.44;;;10.87;100.00
21545;BME280;10933;50.754;11.508;2023-12-29T07:05:43;99277.78;;;10.78;100.00
21545;BME280;10933;50.754;11.508;2023-12-29T07:08:12;99289.16;;;10.80;100.00
21545;BME280;10933;50.754;11.508;2023-12-29T07:10:38;99299.16;;;10.84;100.00
21545;BME280;10933;50.754;11.508;2023-12-29T07:13:05;99302.75;;;10.95;100.00
21545;BME280;10933;50.754;11.508;2023-12-29T07:15:31;99316.31;;;11.05;100.00
21545;BME280;10933;50.754;11.508;2023-12-29T07:17:57;99305.03;;;10.76;100.00
21545;BME280;10933;50.754;11.508;2023-12-29T07:20:23;99300.06;;;10.95;100.00
21545;BME280;10933;50.754;11.508;2023-12-29T07:22:49;99306.81;;;10.98;100.00
21545;BME280;10933;50.754;11.508;2023-12-29T07:25:15;99308.53;;;10.77;100.00
21545;BME280;10933;50.754;11.508;2023-12-29T07:27:41;99326.25;;;11.00;100.00
21545;BME280;10933;50.754;11.508;2023-12-29T07:30:08;99324.53;;;11.26;100.00
21545;BME280;10933;50.754;11.508;2023-12-29T07:32:34;99318.19;;;11.05;100.00
21545;BME280;10933;50.754;11.508;2023-12-29T07:35:01;99316.19;;;10.90;100.00
21545;BME280;10933;50.754;11.508;2023-12-29T07:37:27;99318.94;;;10.95;100.00
21545;BME280;10933;50.754;11.508;2023-12-29T07:39:53;99322.41;;;10.90;100.00
21545;BME280;10933;50.754;11.508;2023-12-29T07:42:19;99318.84;;;10.85;100.00
21545;BME280;10933;50.754;11.508;2023-12-29T07:44:46;99330.22;;;10.92;100.00
21545;BME280;10933;50.754;11.508;2023-12-29T07:47:12;99311.91;;;10.94;100.00
21545;BME280;10933;50.754;11.508;2023-12-29T07:49:38;99343.78;;;10.97;100.00
21545;BME280;10933;50.754;11.508;2023-12-29T07:52:04;99339.22;;;11.03;100.00
21545;BME280;10933;50.754;11.508;2023-12-29T07:54:30;99323.81;;;10.98;100.00
21545;BME280;10933;50.754;11.508;2023-12-29T07:56:56;99317.19;;;10.79;100.00
21545;BME280;10933;50.754;11.508;2023-12-29T07:59:22;99334.31;;;10.95;100.00
21545;BME280;10933;50.754;11.508;2023-12-29T08:01:49;99338.84;;;10.89;100.00
21545;BME280;10933;50.754;11.508;2023-12-29T08:04:15;99330.28;;;10.65;100.00
21545;BME280;10933;50.754;11.508;2023-12-29T08:06:41;99321.13;;;11.03;100.00
21545;BME280;10933;50.754;11.508;2023-12-29T08:09:07;99324.25;;;10.85;100.00
21545;BME280;10933;50.754;11.508;2023-12-29T08:11:33;99328.94;;;10.95;100.00
21545;BME280;10933;50.754;11.508;2023-12-29T08:13:59;99310.84;;;10.95;100.00
21545;BME280;10933;50.754;11.508;2023-12-29T08:16:25;99326.44;;;10.88;100.00
21545;BME280;10933;50.754;11.508;2023-12-29T08:18:52;99309.09;;;10.79;100.00
21545;BME280;10933;50.754;11.508;2023-12-29T08:21:19;99312.72;;;10.95;100.00
21545;BME280;10933;50.754;11.508;2023-12-29T08:23:48;99330.03;;;10.99;100.00
21545;BME280;10933;50.754;11.508;2023-12-29T08:26:15;99310.88;;;11.00;100.00
21545;BME280;10933;50.754;11.508;2023-12-29T08:28:41;99305.47;;;11.00;100.00
21545;BME280;10933;50.754;11.508;2023-12-29T08:31:08;99308.78;;;11.12;100.00
21545;BME280;10933;50.754;11.508;2023-12-29T08:33:34;99288.28;;;11.16;100.00
21545;BME280;10933;50.754;11.508;2023-12-29T08:36:02;99276.84;;;10.99;100.00
21545;BME280;10933;50.754;11.508;2023-12-29T08:38:30;99293.59;;;11.01;100.00
21545;BME280;10933;50.754;11.508;2023-12-29T08:40:57;99299.06;;;11.06;100.00
21545;BME280;10933;50.754;11.508;2023-12-29T08:43:23;99297.06;;;11.39;100.00
21545;BME280;10933;50.754;11.508;2023-12-29T08:45:49;99304.50;;;11.16;100.00
21545;BME280;10933;50.754;11.508;2023-12-29T08:48:15;99305.47;;;11.00;100.00
21545;BME280;10933;50.754;11.508;2023-12-29T08:50:42;99300.06;;;11.00;100.00
21545;BME280;10933;50.754;11.508;2023-12-29T08:53:09;99300.72;;;11.17;100.00
21545;BME280;10933;50.754;11.508;2023-12-29T08:55:35;99297.16;;;11.07;100.00
21545;BME280;10933;50.754;11.508;2023-12-29T08:58:01;99306.13;;;11.17;100.00
21545;BME280;10933;50.754;11.508;2023-12-29T09:00:28;99319.13;;;11.20;100.00
21545;BME280;10933;50.754;11.508;2023-12-29T09:02:56;99313.34;;;11.07;100.00
21545;BME280;10933;50.754;11.508;2023-12-29T09:05:22;99318.78;;;11.12;100.00
21545;BME280;10933;50.754;11.508;2023-12-29T09:07:48;99310.88;;;11.00;100.00
21545;BME280;10933;50.754;11.508;2023-12-29T09:10:15;99305.47;;;11.00;100.00
21545;BME280;10933;50.754;11.508;2023-12-29T09:12:41;99319.03;;;11.05;100.00
21545;BME280;10933;50.754;11.508;2023-12-29T09:15:08;99316.25;;;11.00;100.00
21545;BME280;10933;50.754;11.508;2023-12-29T09:17:34;99329.94;;;11.26;100.00
21545;BME280;10933;50.754;11.508;2023-12-29T09:20:01;99313.66;;;11.15;100.00
21545;BME280;10933;50.754;11.508;2023-12-29T09:22:27;99327.78;;;11.28;100.00
21545;BME280;10933;50.754;11.508;2023-12-29T09:24:54;99331.56;;;11.27;100.00
21545;BME280;10933;50.754;11.508;2023-12-29T09:27:21;99326.63;;;11.13;100.00
21545;BME280;10933;50.754;11.508;2023-12-29T09:29:48;99313.16;;;11.18;100.00
21545;BME280;10933;50.754;11.508;2023-12-29T09:32:14;99339.81;;;11.52;100.00
21545;BME280;10933;50.754;11.508;2023-12-29T09:34:40;99339.88;;;11.62;100.00
21545;BME280;10933;50.754;11.508;2023-12-29T09:37:06;99337.16;;;11.57;100.00
21545;BME280;10933;50.754;11.508;2023-12-29T09:39:32;99351.19;;;11.59;100.00
21545;BME280;10933;50.754;11.508;2023-12-29T09:41:59;99345.00;;;11.64;100.00
21545;BME280;10933;50.754;11.508;2023-12-29T09:44:30;99355.00;;;11.63;100.00
21545;BME280;10933;50.754;11.508;2023-12-29T09:47:00;99320.81;;;11.37;100.00
21545;BME280;10933;50.754;11.508;2023-12-29T09:49:31;99347.28;;;11.35;100.00
21545;BME280;10933;50.754;11.508;2023-12-29T09:52:02;99343.84;;;11.44;100.00
21545;BME280;10933;50.754;11.508;2023-12-29T09:54:30;99348.84;;;11.26;100.00
21545;BME280;10933;50.754;11.508;2023-12-29T09:56:56;99351.31;;;11.32;100.00
21545;BME280;10933;50.754;11.508;2023-12-29T09:59:24;99345.84;;;11.69;100.00
21545;BME280;10933;50.754;11.508;2023-12-29T10:01:52;99338.78;;;11.58;100.00
21545;BME280;10933;50.754;11.508;2023-12-29T10:04:18;99333.38;;;11.58;100.00
21545;BME280;10933;50.754;11.508;2023-12-29T10:06:45;99315.47;;;11.47;100.00
21545;BME280;10933;50.754;11.508;2023-12-29T10:09:15;99326.50;;;11.40;100.00
21545;BME280;10933;50.754;11.508;2023-12-29T10:11:43;99344.19;;;11.58;100.00
21545;BME280;10933;50.754;11.508;2023-12-29T10:14:28;99337.72;;;11.64;100.00
21545;BME280;10933;50.754;11.508;2023-12-29T10:17:40;99342.97;;;11.34;100.00
21545;BME280;10933;50.754;11.508;2023-12-29T10:25:18;99345.41;;;11.40;100.00
21545;BME280;10933;50.754;11.508;2023-12-29T10:27:45;99339.03;;;11.14;100.00
21545;BME280;10933;50.754;11.508;2023-12-29T10:30:12;99312.72;;;11.37;100.00
21545;BME280;10933;50.754;11.508;2023-12-29T10:32:38;99332.69;;;11.36;100.00
21545;BME280;10933;50.754;11.508;2023-12-29T10:35:09;99344.28;;;11.31;100.00
21545;BME280;10933;50.754;11.508;2023-12-29T10:37:36;99345.66;;;11.34;100.00
21545;BME280;10933;50.754;11.508;2023-12-29T10:40:02;99326.69;;;11.24;100.00
21545;BME280;10933;50.754;11.508;2023-12-29T10:42:28;99330.06;;;11.46;100.00
21545;BME280;10933;50.754;11.508;2023-12-29T10:45:08;99325.69;;;11.35;100.00
21545;BME280;10933;50.754;11.508;2023-12-29T10:47:35;99315.50;;;11.52;100.00
21545;BME280;10933;50.754;11.508;2023-12-29T10:50:02;99302.53;;;11.54;100.00
21545;BME280;10933;50.754;11.508;2023-12-29T10:52:32;99302.47;;;11.39;100.00
21545;BME280;10933;50.754;11.508;2023-12-29T10:55:09;99298.22;;;11.53;100.00
21545;BME280;10933;50.754;11.508;2023-12-29T10:57:36;99284.75;;;11.58;100.00
21545;BME280;10933;50.754;11.508;2023-12-29T11:00:04;99299.88;;;11.64;100.00
21545;BME280;10933;50.754;11.508;2023-12-29T11:02:31;99290.16;;;11.58;100.00
21545;BME280;10933;50.754;11.508;2023-12-29T11:05:10;99289.56;;;11.51;100.00
21545;BME280;10933;50.754;11.508;2023-12-29T11:07:38;99289.56;;;11.51;100.00
21545;BME280;10933;50.754;11.508;2023-12-29T11:10:07;99292.31;;;11.56;100.00
21545;BME280;10933;50.754;11.508;2023-12-29T11:12:35;99278.53;;;11.68;100.00
21545;BME280;10933;50.754;11.508;2023-12-29T11:15:05;99277.19;;;11.60;100.00
21545;BME280;10933;50.754;11.508;2023-12-29T11:17:36;99279.84;;;11.50;100.00
21545;BME280;10933;50.754;11.508;2023-12-29T11:20:03;99268.03;;;11.71;100.00
21545;BME280;10933;50.754;11.508;2023-12-29T11:22:31;99261.56;;;11.77;100.00
21545;BME280;10933;50.754;11.508;2023-12-29T11:24:58;99263.78;;;11.86;100.00
21545;BME280;10933;50.754;11.508;2023-12-29T11:27:31;99250.72;;;11.67;100.00
21545;BME280;10933;50.754;11.508;2023-12-29T11:30:02;99254.81;;;11.75;100.00
21545;BME280;10933;50.754;11.508;2023-12-29T11:35:39;99248.31;;;11.76;100.00
21545;BME280;10933;50.754;11.508;2023-12-29T11:40:57;99273.44;;;11.76;100.00
21545;BME280;10933;50.754;11.508;2023-12-29T11:43:27;99238.38;;;11.87;100.00
21545;BME280;10933;50.754;11.508;2023-12-29T11:45:53;99273.28;;;12.03;100.00
21545;BME280;10933;50.754;11.508;2023-12-29T11:48:53;99241.00;;;11.66;100.00
21545;BME280;10933;50.754;11.508;2023-12-29T11:51:34;99263.16;;;11.68;100.00
21545;BME280;10933;50.754;11.508;2023-12-29T11:54:04;99264.34;;;11.83;100.00
21545;BME280;10933;50.754;11.508;2023-12-29T11:56:33;99265.06;;;11.73;100.00
21545;BME280;10933;50.754;11.508;2023-12-29T11:59:25;99254.00;;;11.69;100.00
21545;BME280;10933;50.754;11.508;2023-12-29T12:01:53;99278.38;;;11.90;100.00
21545;BME280;10933;50.754;11.508;2023-12-29T12:04:44;99255.69;;;11.91;100.00
21545;BME280;10933;50.754;11.508;2023-12-29T12:07:17;99272.97;;;11.85;100.00
21545;BME280;10933;50.754;11.508;2023-12-29T12:09:43;99269.44;;;11.79;100.00
21545;BME280;10933;50.754;11.508;2023-12-29T12:12:09;99269.97;;;11.81;100.00
21545;BME280;10933;50.754;11.508;2023-12-29T12:14:51;99256.09;;;11.57;100.00
21545;BME280;10933;50.754;11.508;2023-12-29T12:17:33;99260.47;;;11.73;100.00
21545;BME280;10933;50.754;11.508;2023-12-29T12:20:10;99268.84;;;11.72;100.00
21545;BME280;10933;50.754;11.508;2023-12-29T12:22:37;99277.34;;;12.06;100.00
21545;BME280;10933;50.754;11.508;2023-12-29T12:25:04;99256.16;;;11.77;100.00
21545;BME280;10933;50.754;11.508;2023-12-29T12:27:31;99248.63;;;11.79;100.00
21545;BME280;10933;50.754;11.508;2023-12-29T12:29:59;99261.66;;;11.98;100.00
21545;BME280;10933;50.754;11.508;2023-12-29T12:32:29;99249.22;;;11.97;100.00
21545;BME280;10933;50.754;11.508;2023-12-29T12:34:56;99246.50;;;11.82;100.00
21545;BME280;10933;50.754;11.508;2023-12-29T12:37:25;99248.63;;;11.79;100.00
21545;BME280;10933;50.754;11.508;2023-12-29T12:39:52;99226.19;;;11.79;100.00
21545;BME280;10933;50.754;11.508;2023-12-29T12:42:20;99209.97;;;11.79;100.00
21545;BME280;10933;50.754;11.508;2023-12-29T12:45:35;99234.88;;;11.91;100.00
21545;BME280;10933;50.754;11.508;2023-12-29T12:47:49;99229.19;;;11.83;100.00
21545;BME280;10933;50.754;11.508;2023-12-29T12:50:17;99230.22;;;11.71;100.00
21545;BME280;10933;50.754;11.508;2023-12-29T12:52:43;99231.91;;;11.83;100.00
21545;BME280;10933;50.754;11.508;2023-12-29T12:55:10;99246.50;;;11.92;100.00
21545;BME280;10933;50.754;11.508;2023-12-29T12:57:37;99237.31;;;11.83;100.00
21545;BME280;10933;50.754;11.508;2023-12-29T13:00:04;99242.94;;;11.81;100.00